Terminal Aerodrome Forecast
Issued by NWS Pendleton, OR

Home | Current Version | Previous Version | Text Only | Print | Product List | Glossary On
Versions: 1 2 3 4 5 6 7 8 9 10 11 12 13 14 15 16 17 18 19 20 21 22 23 24
000
FTUS46 KPDT 141818 AAA
TAFPDT
TAF AMD
KPDT 141818Z 1418/1518 31004KT P6SM SCT008 OVC011
      TEMPO 1422/1424 BKN008 OVC011
     FM150000 34004KT P6SM BKN008 OVC010
     FM150700 14003KT 6SM BR OVC005=

USA.gov is the U.S. government's official web portal to all federal, state and local government web resources and services.